Time;durP1;ratioP1;P1;durP2;ratioP2;P2;SDS_P1;SDS_P2;PMS_P1;PMS_P2;Temp;Humidity;BMP_temperature;BMP_pressure;BME280_temperature;BME280_humidity;BME280_pressure;Samples;Min_cycle;Max_cycle;Signal;HPM_P1;HPM_P2
2020/12/11 00:00:18;;;;;;;45.63;25.48;;;;;;;;;;5033733;28;20610;-67
2020/12/11 00:02:45;;;;;;;50.58;27.38;;;;;;;;;;5033776;28;20219;-68
2020/12/11 00:05:11;;;;;;;48.30;25.20;;;;;;;;;;5033722;28;20256;-68
2020/12/11 00:07:39;;;;;;;51.00;26.08;;;;;;;;;;5034459;28;20651;-67
2020/12/11 00:10:07;;;;;;;46.38;25.20;;;;;;;;;;5035428;28;20210;-67
2020/12/11 00:12:34;;;;;;;42.33;23.08;;;;;;;;;;5035239;28;20226;-68
2020/12/11 00:15:01;;;;;;;46.03;25.65;;;;;;;;;;5033795;28;20202;-68
2020/12/11 00:17:28;;;;;;;40.40;21.65;;;;;;;;;;5033529;28;20207;-68
2020/12/11 00:19:55;;;;;;;45.10;26.02;;;;;;;;;;5033654;28;20293;-67
2020/12/11 00:22:22;;;;;;;41.38;22.75;;;;;;;;;;5034325;28;20284;-68
2020/12/11 00:24:49;;;;;;;46.28;23.90;;;;;;;;;;5037662;28;20202;-67
2020/12/11 00:27:17;;;;;;;50.25;24.30;;;;;;;;;;5037597;28;20206;-66
2020/12/11 00:29:43;;;;;;;37.67;21.88;;;;;;;;;;5037683;28;20272;-67
2020/12/11 00:32:10;;;;;;;36.72;22.13;;;;;;;;;;5037468;28;20230;-67
2020/12/11 00:34:37;;;;;;;41.67;22.92;;;;;;;;;;5037783;28;20203;-68
2020/12/11 00:37:05;;;;;;;40.80;23.40;;;;;;;;;;5037000;28;20210;-67
2020/12/11 00:39:32;;;;;;;39.00;23.20;;;;;;;;;;5037542;28;20256;-68
2020/12/11 00:41:59;;;;;;;48.72;24.25;;;;;;;;;;5037384;28;20225;-68
2020/12/11 00:44:26;;;;;;;40.50;22.67;;;;;;;;;;5037089;28;20256;-68
2020/12/11 00:46:55;;;;;;;41.63;22.80;;;;;;;;;;5037946;28;20751;-67
2020/12/11 00:49:22;;;;;;;42.63;22.40;;;;;;;;;;5037113;28;20225;-68
2020/12/11 00:51:53;;;;;;;39.42;22.70;;;;;;;;;;5038822;28;20268;-67
2020/12/11 00:54:20;;;;;;;45.17;22.63;;;;;;;;;;5038911;28;20186;-67
2020/12/11 00:56:46;;;;;;;40.10;22.55;;;;;;;;;;5040562;28;20663;-67
2020/12/11 00:59:13;;;;;;;42.83;23.15;;;;;;;;;;5046014;28;20292;-67
2020/12/11 01:01:41;;;;;;;39.05;22.75;;;;;;;;;;5050377;28;20230;-67
2020/12/11 01:04:07;;;;;;;42.10;21.58;;;;;;;;;;5048737;28;20198;-68
2020/12/11 01:06:34;;;;;;;41.33;21.00;;;;;;;;;;5047967;28;20206;-67
2020/12/11 01:09:01;;;;;;;38.33;22.30;;;;;;;;;;5047749;28;20219;-67
2020/12/11 01:11:28;;;;;;;39.95;22.95;;;;;;;;;;5046898;28;20280;-67
2020/12/11 01:13:54;;;;;;;37.75;21.25;;;;;;;;;;5037248;28;20210;-67
2020/12/11 01:16:21;;;;;;;41.10;22.42;;;;;;;;;;5036665;28;20333;-67
2020/12/11 01:18:49;;;;;;;40.60;22.20;;;;;;;;;;5036672;28;20248;-67
2020/12/11 01:21:15;;;;;;;37.20;19.90;;;;;;;;;;5036833;28;20249;-68
2020/12/11 01:23:42;;;;;;;45.00;22.38;;;;;;;;;;5036744;28;20225;-68
2020/12/11 01:26:09;;;;;;;39.92;21.65;;;;;;;;;;5036356;28;20222;-67
2020/12/11 01:28:36;;;;;;;43.58;23.33;;;;;;;;;;5036155;28;20698;-66
2020/12/11 01:31:03;;;;;;;39.55;22.25;;;;;;;;;;5036386;28;20226;-67
2020/12/11 01:33:30;;;;;;;39.97;21.05;;;;;;;;;;5036268;28;20206;-67
2020/12/11 01:35:57;;;;;;;46.38;21.35;;;;;;;;;;5035656;28;20248;-67
2020/12/11 01:38:24;;;;;;;41.20;20.75;;;;;;;;;;5036673;28;20199;-67
2020/12/11 01:40:51;;;;;;;39.75;21.50;;;;;;;;;;5036375;28;20214;-67
2020/12/11 01:43:20;;;;;;;34.25;19.95;;;;;;;;;;5036426;28;20551;-66
2020/12/11 01:45:47;;;;;;;35.40;21.25;;;;;;;;;;5036591;28;20289;-67
2020/12/11 01:48:13;;;;;;;37.97;21.58;;;;;;;;;;5035998;28;20272;-68
2020/12/11 01:50:40;;;;;;;39.50;21.10;;;;;;;;;;5035708;28;20285;-67
2020/12/11 01:53:09;;;;;;;32.50;19.75;;;;;;;;;;5035805;28;20674;-67
2020/12/11 01:55:38;;;;;;;34.85;19.88;;;;;;;;;;5035998;28;20202;-67
2020/12/11 01:58:07;;;;;;;40.47;20.33;;;;;;;;;;5036435;28;20289;-67
2020/12/11 02:00:37;;;;;;;37.38;18.70;;;;;;;;;;5036317;28;20202;-67
2020/12/11 02:03:06;;;;;;;32.53;19.88;;;;;;;;;;5035913;28;20260;-67
2020/12/11 02:05:33;;;;;;;32.92;18.00;;;;;;;;;;5036941;28;20206;-68
2020/12/11 02:07:59;;;;;;;29.77;17.13;;;;;;;;;;5037642;28;20211;-67
2020/12/11 02:10:27;;;;;;;29.25;16.77;;;;;;;;;;5039658;28;20257;-68
2020/12/11 02:12:54;;;;;;;26.27;16.25;;;;;;;;;;5035741;28;20257;-66
2020/12/11 02:15:21;;;;;;;23.17;15.23;;;;;;;;;;5036027;28;20198;-67
2020/12/11 02:17:48;;;;;;;27.75;16.85;;;;;;;;;;5036203;28;20268;-69
2020/12/11 02:20:15;;;;;;;32.45;17.65;;;;;;;;;;5035797;28;20198;-68
2020/12/11 02:22:42;;;;;;;24.48;15.50;;;;;;;;;;5035976;28;20280;-67
2020/12/11 02:25:09;;;;;;;27.58;16.48;;;;;;;;;;5035511;28;20252;-67
2020/12/11 02:27:38;;;;;;;27.90;17.02;;;;;;;;;;5035555;28;20206;-67
2020/12/11 02:30:04;;;;;;;28.92;18.45;;;;;;;;;;5034953;28;20595;-68
2020/12/11 02:32:31;;;;;;;24.40;15.77;;;;;;;;;;5034922;28;20269;-68
2020/12/11 02:34:58;;;;;;;26.95;16.92;;;;;;;;;;5034921;28;20203;-69
2020/12/11 02:37:25;;;;;;;27.17;16.25;;;;;;;;;;5034863;28;20198;-66
2020/12/11 02:39:52;;;;;;;30.55;17.60;;;;;;;;;;5035411;28;20206;-68
2020/12/11 02:42:19;;;;;;;28.60;15.52;;;;;;;;;;5034657;28;20268;-67
2020/12/11 02:44:46;;;;;;;25.95;15.55;;;;;;;;;;5034505;28;20697;-67
2020/12/11 02:47:14;;;;;;;24.45;15.10;;;;;;;;;;5033827;28;20268;-67
2020/12/11 02:49:41;;;;;;;21.02;15.05;;;;;;;;;;5035401;28;20218;-68
2020/12/11 02:52:08;;;;;;;24.88;14.57;;;;;;;;;;5035791;28;20280;-68
2020/12/11 02:54:35;;;;;;;22.77;14.55;;;;;;;;;;5035674;28;20280;-67
2020/12/11 02:57:02;;;;;;;24.00;14.70;;;;;;;;;;5042881;28;20272;-69
2020/12/11 02:59:29;;;;;;;23.65;15.10;;;;;;;;;;5042941;28;20256;-68
2020/12/11 03:01:56;;;;;;;27.13;15.73;;;;;;;;;;5041702;28;20369;-67
2020/12/11 03:04:22;;;;;;;23.73;14.93;;;;;;;;;;5036582;28;20202;-67
2020/12/11 03:06:49;;;;;;;24.83;14.73;;;;;;;;;;5035104;28;20202;-67
2020/12/11 03:09:16;;;;;;;25.58;15.20;;;;;;;;;;5034605;28;20222;-68
2020/12/11 03:11:43;;;;;;;25.00;16.63;;;;;;;;;;5035454;28;20230;-68
2020/12/11 03:14:10;;;;;;;26.33;15.73;;;;;;;;;;5034655;28;20214;-68
2020/12/11 03:16:37;;;;;;;22.98;15.45;;;;;;;;;;5034392;28;20203;-68
2020/12/11 03:19:04;;;;;;;21.98;14.95;;;;;;;;;;5034753;28;20268;-68
2020/12/11 03:21:30;;;;;;;22.88;15.82;;;;;;;;;;5034111;28;20288;-68
2020/12/11 03:23:57;;;;;;;22.88;13.95;;;;;;;;;;5035507;28;20210;-68
2020/12/11 03:26:24;;;;;;;24.35;15.60;;;;;;;;;;5034967;28;20564;-67
2020/12/11 03:28:51;;;;;;;22.67;14.85;;;;;;;;;;5034477;28;20218;-67
2020/12/11 03:31:19;;;;;;;23.17;14.95;;;;;;;;;;5034589;28;20590;-67
2020/12/11 03:33:46;;;;;;;22.27;14.77;;;;;;;;;;5034352;28;20285;-66
2020/12/11 03:36:13;;;;;;;23.98;15.90;;;;;;;;;;5034585;28;20202;-67
2020/12/11 03:38:40;;;;;;;24.17;14.77;;;;;;;;;;5034178;28;20198;-66
2020/12/11 03:41:06;;;;;;;26.10;16.85;;;;;;;;;;5034731;28;20226;-67
2020/12/11 03:43:33;;;;;;;22.55;15.48;;;;;;;;;;5033887;28;20210;-67
2020/12/11 03:46:00;;;;;;;26.45;16.45;;;;;;;;;;5034063;28;20206;-67
2020/12/11 03:48:27;;;;;;;22.88;16.17;;;;;;;;;;5033727;28;20292;-67
2020/12/11 03:50:54;;;;;;;25.65;16.98;;;;;;;;;;5033898;28;20256;-69
2020/12/11 03:53:21;;;;;;;24.45;15.88;;;;;;;;;;5033822;28;20202;-68
2020/12/11 03:55:48;;;;;;;19.30;14.90;;;;;;;;;;5033792;28;20202;-68
2020/12/11 03:58:14;;;;;;;24.15;16.98;;;;;;;;;;5032935;28;20732;-67
2020/12/11 04:00:41;;;;;;;23.63;16.48;;;;;;;;;;5033489;28;20818;-67
2020/12/11 04:03:08;;;;;;;25.52;17.58;;;;;;;;;;5033786;28;20202;-67
2020/12/11 04:07:26;;;;;;;24.95;16.33;;;;;;;;;;5112350;27;20601;-67
2020/12/11 04:09:53;;;;;;;22.15;15.38;;;;;;;;;;5111591;28;20203;-67
2020/12/11 04:12:20;;;;;;;24.08;17.20;;;;;;;;;;5111243;28;20273;-69
2020/12/11 04:14:47;;;;;;;26.20;17.90;;;;;;;;;;5111100;28;20230;-68
2020/12/11 04:17:13;;;;;;;24.20;16.20;;;;;;;;;;5111355;28;20191;-68
2020/12/11 04:19:40;;;;;;;22.08;16.08;;;;;;;;;;5112607;28;20256;-68
2020/12/11 04:22:07;;;;;;;22.63;15.68;;;;;;;;;;5111477;28;20220;-68
2020/12/11 04:24:34;;;;;;;23.40;16.10;;;;;;;;;;5111233;28;20207;-67
2020/12/11 04:27:01;;;;;;;23.80;16.83;;;;;;;;;;5111144;28;20558;-68
2020/12/11 04:29:28;;;;;;;21.80;15.05;;;;;;;;;;5111251;28;20204;-67
2020/12/11 04:31:55;;;;;;;23.50;15.73;;;;;;;;;;5111247;28;20220;-67
2020/12/11 04:34:22;;;;;;;20.48;15.50;;;;;;;;;;5111126;28;20253;-67
2020/12/11 04:36:52;;;;;;;24.20;15.90;;;;;;;;;;5111661;28;20668;-68
2020/12/11 04:39:19;;;;;;;23.35;15.55;;;;;;;;;;5111637;28;20207;-67
2020/12/11 04:41:47;;;;;;;21.40;14.50;;;;;;;;;;5112826;28;20345;-67
2020/12/11 04:44:14;;;;;;;24.98;15.85;;;;;;;;;;5112412;28;20200;-67
2020/12/11 04:46:41;;;;;;;24.17;15.25;;;;;;;;;;5112837;28;20293;-67
2020/12/11 04:49:07;;;;;;;20.60;15.23;;;;;;;;;;5113319;28;20196;-68
2020/12/11 04:51:34;;;;;;;19.70;13.35;;;;;;;;;;5113133;28;20246;-67
2020/12/11 04:54:02;;;;;;;19.35;14.38;;;;;;;;;;5113249;28;20196;-68
2020/12/11 04:56:29;;;;;;;22.08;15.00;;;;;;;;;;5112751;28;20610;-68
2020/12/11 04:58:57;;;;;;;20.85;14.15;;;;;;;;;;5111571;28;20204;-68
2020/12/11 05:01:30;;;;;;;18.42;14.65;;;;;;;;;;5110603;28;20573;-67
2020/12/11 05:03:57;;;;;;;17.48;13.85;;;;;;;;;;5110818;28;20196;-67
2020/12/11 05:06:24;;;;;;;19.38;14.00;;;;;;;;;;5110465;28;20706;-66
2020/12/11 05:09:09;;;;;;;20.38;13.25;;;;;;;;;;5110315;28;20257;-67
2020/12/11 05:11:36;;;;;;;18.05;13.52;;;;;;;;;;5110531;28;20289;-66
2020/12/11 05:14:03;;;;;;;18.98;14.00;;;;;;;;;;5110263;28;20287;-67
2020/12/11 05:16:30;;;;;;;18.63;13.20;;;;;;;;;;5110844;28;20200;-66
2020/12/11 05:19:03;;;;;;;18.80;13.45;;;;;;;;;;5097029;28;20197;-66
2020/12/11 05:21:30;;;;;;;15.90;13.45;;;;;;;;;;5097589;28;20221;-67
2020/12/11 05:23:58;;;;;;;17.73;13.55;;;;;;;;;;5096577;28;20664;-67
2020/12/11 05:26:25;;;;;;;14.02;10.95;;;;;;;;;;5098052;28;20220;-67
2020/12/11 05:28:51;;;;;;;16.13;13.05;;;;;;;;;;5096946;28;20207;-67
2020/12/11 05:31:19;;;;;;;15.55;12.40;;;;;;;;;;5097315;28;20216;-67
2020/12/11 05:34:02;;;;;;;14.65;12.10;;;;;;;;;;5096754;28;20278;-67
2020/12/11 05:36:29;;;;;;;14.27;12.38;;;;;;;;;;5096533;28;20196;-68
2020/12/11 05:38:56;;;;;;;15.43;12.00;;;;;;;;;;5096207;28;20254;-66
2020/12/11 05:41:32;;;;;;;16.92;10.82;;;;;;;;;;5096233;28;20566;-66
2020/12/11 05:43:59;;;;;;;16.92;11.95;;;;;;;;;;5096473;28;20200;-66
2020/12/11 05:46:30;;;;;;;16.70;11.57;;;;;;;;;;5096311;28;20265;-66
2020/12/11 05:48:58;;;;;;;14.93;11.25;;;;;;;;;;5096479;28;20181;-65
2020/12/11 05:51:25;;;;;;;15.63;11.95;;;;;;;;;;5096777;28;20306;-67
2020/12/11 05:53:53;;;;;;;15.82;11.70;;;;;;;;;;5096516;28;20283;-66
2020/12/11 05:56:21;;;;;;;14.93;11.30;;;;;;;;;;5095890;28;20648;-68
2020/12/11 05:58:51;;;;;;;20.25;12.07;;;;;;;;;;5097311;28;20260;-67
2020/12/11 06:01:18;;;;;;;16.80;11.73;;;;;;;;;;5096421;28;20228;-66
2020/12/11 06:03:47;;;;;;;16.60;13.20;;;;;;;;;;5095620;28;20249;-67
2020/12/11 06:06:16;;;;;;;17.23;12.65;;;;;;;;;;5095814;28;20277;-66
2020/12/11 06:08:44;;;;;;;15.02;11.60;;;;;;;;;;5095838;28;20232;-66
2020/12/11 06:11:18;;;;;;;19.65;13.43;;;;;;;;;;5099075;28;20216;-66
2020/12/11 06:13:49;;;;;;;13.20;11.25;;;;;;;;;;5108915;28;20237;-67
2020/12/11 06:16:17;;;;;;;13.68;11.43;;;;;;;;;;5105210;28;20210;-66
2020/12/11 06:18:44;;;;;;;16.42;10.82;;;;;;;;;;5104511;28;20196;-67
2020/12/11 06:21:12;;;;;;;14.00;11.85;;;;;;;;;;5101857;28;20289;-67
2020/12/11 06:23:41;;;;;;;13.13;11.68;;;;;;;;;;5096789;28;20230;-66
2020/12/11 06:26:08;;;;;;;16.20;11.95;;;;;;;;;;5096118;28;20235;-65
2020/12/11 06:28:38;;;;;;;16.05;12.43;;;;;;;;;;5095850;28;20212;-66
2020/12/11 06:31:05;;;;;;;16.70;13.40;;;;;;;;;;5095845;28;20225;-66
2020/12/11 06:33:32;;;;;;;16.38;11.23;;;;;;;;;;5095883;28;20219;-66
2020/12/11 06:35:59;;;;;;;19.98;11.90;;;;;;;;;;5095749;28;20204;-65
2020/12/11 06:38:40;;;;;;;14.70;10.88;;;;;;;;;;5095838;28;20200;-67
2020/12/11 06:41:07;;;;;;;12.85;11.43;;;;;;;;;;5097363;28;20356;-68
2020/12/11 06:43:38;;;;;;;13.63;11.45;;;;;;;;;;5096903;28;20270;-68
2020/12/11 06:46:11;;;;;;;14.70;12.00;;;;;;;;;;5094902;28;20277;-67
2020/12/11 06:49:05;;;;;;;14.18;11.10;;;;;;;;;;5094921;28;20246;-66
2020/12/11 06:51:32;;;;;;;21.88;12.18;;;;;;;;;;5095420;28;20265;-68
2020/12/11 06:54:00;;;;;;;13.43;10.75;;;;;;;;;;5096213;28;20208;-68
2020/12/11 06:56:39;;;;;;;13.35;11.50;;;;;;;;;;5094616;28;20664;-67
2020/12/11 06:59:27;;;;;;;12.95;11.15;;;;;;;;;;5094632;28;20205;-67
2020/12/11 07:01:54;;;;;;;13.90;11.40;;;;;;;;;;5090812;28;20319;-68
2020/12/11 07:04:21;;;;;;;13.00;10.55;;;;;;;;;;5095232;28;20332;-67
2020/12/11 07:06:48;;;;;;;15.57;10.38;;;;;;;;;;5095231;28;20274;-66
2020/12/11 07:09:16;;;;;;;13.23;11.60;;;;;;;;;;5094879;28;20212;-67
2020/12/11 07:11:43;;;;;;;13.05;10.70;;;;;;;;;;5095594;28;20224;-66
2020/12/11 07:14:10;;;;;;;13.73;11.32;;;;;;;;;;5095727;28;20208;-65
2020/12/11 07:16:40;;;;;;;15.35;11.45;;;;;;;;;;5095256;28;20664;-65
2020/12/11 07:19:07;;;;;;;11.95;10.70;;;;;;;;;;5095125;28;20249;-66
2020/12/11 07:21:34;;;;;;;13.68;10.20;;;;;;;;;;5095038;28;20362;-66
2020/12/11 07:24:00;;;;;;;15.63;10.95;;;;;;;;;;5094979;28;20204;-66
2020/12/11 07:26:28;;;;;;;13.48;10.35;;;;;;;;;;5095166;28;20691;-68
2020/12/11 07:29:05;;;;;;;11.60;10.35;;;;;;;;;;5094480;28;20200;-66
2020/12/11 07:31:34;;;;;;;13.75;10.45;;;;;;;;;;5095322;28;20242;-67
2020/12/11 07:34:01;;;;;;;15.18;10.70;;;;;;;;;;5095745;28;20253;-67
2020/12/11 07:36:28;;;;;;;11.73;10.15;;;;;;;;;;5095625;28;20245;-66
2020/12/11 07:38:55;;;;;;;13.65;10.77;;;;;;;;;;5096996;28;20722;-67
2020/12/11 07:41:24;;;;;;;12.95;10.15;;;;;;;;;;5097015;28;20764;-67
2020/12/11 07:43:51;;;;;;;14.75;10.55;;;;;;;;;;5098100;28;20302;-67
2020/12/11 07:46:22;;;;;;;12.07;10.50;;;;;;;;;;5096213;28;20216;-66
2020/12/11 07:48:49;;;;;;;15.70;11.70;;;;;;;;;;5097989;28;20208;-68
2020/12/11 07:51:17;;;;;;;13.55;10.68;;;;;;;;;;5095778;28;20622;-67
2020/12/11 07:53:51;;;;;;;16.40;12.15;;;;;;;;;;5095857;28;20232;-68
2020/12/11 07:56:17;;;;;;;15.82;11.05;;;;;;;;;;5095027;28;20230;-68
2020/12/11 07:58:44;;;;;;;15.13;12.50;;;;;;;;;;5095780;28;20246;-67
2020/12/11 08:01:13;;;;;;;12.95;10.38;;;;;;;;;;5096725;28;20232;-68
2020/12/11 08:03:39;;;;;;;17.42;11.77;;;;;;;;;;5096487;28;20575;-66
2020/12/11 08:06:11;;;;;;;14.02;11.15;;;;;;;;;;5095753;28;20664;-67
2020/12/11 08:08:38;;;;;;;16.10;11.63;;;;;;;;;;5094572;28;20280;-68
2020/12/11 08:11:05;;;;;;;14.63;10.60;;;;;;;;;;5093991;28;20216;-65
2020/12/11 08:13:32;;;;;;;16.08;11.15;;;;;;;;;;5093647;28;20200;-66
2020/12/11 08:16:02;;;;;;;15.90;11.85;;;;;;;;;;5093958;28;20608;-67
2020/12/11 08:18:32;;;;;;;13.65;11.30;;;;;;;;;;5095091;28;20200;-67
2020/12/11 08:21:00;;;;;;;12.88;10.80;;;;;;;;;;5093601;28;20216;-65
2020/12/11 08:23:31;;;;;;;15.45;11.50;;;;;;;;;;5094905;28;20537;-66
2020/12/11 08:26:14;;;;;;;13.90;11.02;;;;;;;;;;5094238;28;20664;-68
2020/12/11 08:28:42;;;;;;;14.68;11.63;;;;;;;;;;5094719;28;20200;-68
2020/12/11 08:31:22;;;;;;;14.40;11.20;;;;;;;;;;5094610;28;20232;-68
2020/12/11 08:33:50;;;;;;;14.05;10.68;;;;;;;;;;5095476;28;20656;-66
2020/12/11 08:36:24;;;;;;;13.13;10.88;;;;;;;;;;5095568;28;20227;-67
2020/12/11 08:39:07;;;;;;;14.18;10.35;;;;;;;;;;5095116;28;20678;-65
2020/12/11 08:41:37;;;;;;;14.10;10.85;;;;;;;;;;5094695;28;20216;-66
2020/12/11 08:44:07;;;;;;;14.60;10.95;;;;;;;;;;5094110;28;20287;-66
2020/12/11 08:46:41;;;;;;;13.27;10.95;;;;;;;;;;5093797;28;20205;-66
2020/12/11 08:49:15;;;;;;;12.07;10.43;;;;;;;;;;5093921;28;20641;-67
2020/12/11 08:51:41;;;;;;;15.55;9.88;;;;;;;;;;5093592;28;20220;-67
2020/12/11 08:54:09;;;;;;;12.07;9.73;;;;;;;;;;5097392;28;20345;-67
2020/12/11 08:56:36;;;;;;;12.48;10.63;;;;;;;;;;5097406;28;20201;-65
2020/12/11 08:59:03;;;;;;;13.90;11.18;;;;;;;;;;5097369;28;20204;-65
2020/12/11 09:01:30;;;;;;;12.38;10.80;;;;;;;;;;5097608;28;20232;-66
2020/12/11 09:03:57;;;;;;;15.13;11.98;;;;;;;;;;5097245;28;20215;-67
2020/12/11 09:06:24;;;;;;;15.52;12.50;;;;;;;;;;5096891;28;20289;-63
2020/12/11 09:08:51;;;;;;;16.48;11.80;;;;;;;;;;5097117;28;20200;-64
2020/12/11 09:11:18;;;;;;;19.13;12.68;;;;;;;;;;5097286;28;20224;-64
2020/12/11 09:13:44;;;;;;;13.38;12.00;;;;;;;;;;5097048;28;20204;-64
2020/12/11 09:16:11;;;;;;;15.32;12.15;;;;;;;;;;5097158;28;20229;-66
2020/12/11 09:18:38;;;;;;;15.07;12.35;;;;;;;;;;5097712;28;20258;-65
2020/12/11 09:21:05;;;;;;;13.93;11.05;;;;;;;;;;5097080;28;20228;-64
2020/12/11 09:23:32;;;;;;;15.98;11.95;;;;;;;;;;5098468;28;20633;-65
2020/12/11 09:25:59;;;;;;;17.00;13.27;;;;;;;;;;5099519;28;20227;-64
2020/12/11 09:28:26;;;;;;;13.13;11.45;;;;;;;;;;5102949;28;20204;-66
2020/12/11 09:30:53;;;;;;;15.82;12.20;;;;;;;;;;5099088;28;20294;-66
2020/12/11 09:33:23;;;;;;;14.05;11.20;;;;;;;;;;5099615;28;20200;-68
2020/12/11 09:35:49;;;;;;;14.45;11.20;;;;;;;;;;5102494;28;20235;-67
2020/12/11 09:38:16;;;;;;;18.15;11.95;;;;;;;;;;5104853;28;20197;-66
2020/12/11 09:40:47;;;;;;;15.40;11.10;;;;;;;;;;5103547;28;20196;-66
2020/12/11 09:43:43;;;;;;;13.18;11.45;;;;;;;;;;5101195;28;20181;-64
2020/12/11 09:46:21;;;;;;;15.05;10.70;;;;;;;;;;5102346;28;20224;-67
2020/12/11 09:48:52;;;;;;;15.70;12.48;;;;;;;;;;5099739;28;20241;-66
2020/12/11 09:54:17;;;;;;;16.15;10.90;;;;;;;;;;5072147;28;20717;-65
2020/12/11 09:56:44;;;;;;;15.05;12.07;;;;;;;;;;5096193;28;20718;-66
2020/12/11 09:59:14;;;;;;;15.77;12.00;;;;;;;;;;5096505;28;20196;-64
2020/12/11 10:04:25;;;;;;;13.70;10.70;;;;;;;;;;5095150;28;20193;-64
2020/12/11 10:06:52;;;;;;;15.30;11.13;;;;;;;;;;5095467;28;20228;-64
2020/12/11 10:09:19;;;;;;;15.23;11.95;;;;;;;;;;5096202;28;20204;-63
2020/12/11 10:11:50;;;;;;;16.42;11.65;;;;;;;;;;5096238;28;20224;-63
2020/12/11 10:14:29;;;;;;;13.50;11.43;;;;;;;;;;5095715;28;20195;-63
2020/12/11 10:16:56;;;;;;;16.90;11.85;;;;;;;;;;5095971;28;20253;-63
2020/12/11 10:19:29;;;;;;;16.85;11.60;;;;;;;;;;5096056;28;20609;-64
2020/12/11 10:21:56;;;;;;;14.90;11.20;;;;;;;;;;5095927;28;20224;-66
2020/12/11 10:24:23;;;;;;;14.40;10.88;;;;;;;;;;5095927;28;20200;-65
2020/12/11 10:26:53;;;;;;;15.75;11.57;;;;;;;;;;5095506;28;20295;-66
2020/12/11 10:29:22;;;;;;;15.98;12.50;;;;;;;;;;5095798;28;20201;-64
2020/12/11 10:31:48;;;;;;;15.35;11.70;;;;;;;;;;5096206;28;20252;-65
2020/12/11 10:34:16;;;;;;;16.75;12.02;;;;;;;;;;5095779;28;20196;-67
2020/12/11 10:36:43;;;;;;;17.85;11.38;;;;;;;;;;5095283;28;20200;-65
2020/12/11 10:39:10;;;;;;;13.18;9.77;;;;;;;;;;5095346;28;20208;-64
2020/12/11 10:41:37;;;;;;;16.20;12.02;;;;;;;;;;5094894;28;20271;-66
2020/12/11 10:44:06;;;;;;;15.40;11.25;;;;;;;;;;5095331;28;20245;-67
2020/12/11 10:46:32;;;;;;;15.15;11.45;;;;;;;;;;5095603;28;20311;-65
2020/12/11 10:48:59;;;;;;;15.65;11.55;;;;;;;;;;5096569;28;20227;-69
2020/12/11 10:51:26;;;;;;;17.33;11.43;;;;;;;;;;5095963;28;20220;-69
2020/12/11 10:53:53;;;;;;;17.48;12.93;;;;;;;;;;5096148;28;20203;-66
2020/12/11 10:56:20;;;;;;;15.02;11.18;;;;;;;;;;5095594;28;20254;-65
2020/12/11 10:58:47;;;;;;;17.58;12.52;;;;;;;;;;5097102;28;20204;-66
2020/12/11 11:01:15;;;;;;;17.00;13.00;;;;;;;;;;5095776;28;20516;-66
2020/12/11 11:03:41;;;;;;;20.42;12.52;;;;;;;;;;5095867;28;20200;-68
2020/12/11 11:06:13;;;;;;;16.15;12.35;;;;;;;;;;5095818;28;20265;-66
2020/12/11 11:08:49;;;;;;;16.55;12.07;;;;;;;;;;5095718;28;20629;-69
2020/12/11 11:11:20;;;;;;;17.95;12.65;;;;;;;;;;5095077;28;20625;-67
2020/12/11 11:13:57;;;;;;;18.30;12.35;;;;;;;;;;5095065;28;20196;-70
2020/12/11 11:16:43;;;;;;;15.25;11.50;;;;;;;;;;5094708;28;20199;-69
2020/12/11 11:19:16;;;;;;;16.65;11.30;;;;;;;;;;5095467;28;20220;-65
2020/12/11 11:22:04;;;;;;;14.45;11.10;;;;;;;;;;5094472;28;20216;-66
2020/12/11 11:24:51;;;;;;;14.93;11.15;;;;;;;;;;5094403;28;20305;-67
2020/12/11 11:27:21;;;;;;;16.58;11.88;;;;;;;;;;5094589;28;20224;-68
2020/12/11 11:29:48;;;;;;;16.48;11.43;;;;;;;;;;5095113;28;20192;-68
2020/12/11 11:32:15;;;;;;;15.20;11.73;;;;;;;;;;5094892;28;20226;-67
2020/12/11 11:34:42;;;;;;;15.18;11.57;;;;;;;;;;5097958;28;20200;-67
2020/12/11 11:37:09;;;;;;;19.60;11.65;;;;;;;;;;5094692;28;20269;-67
2020/12/11 11:39:36;;;;;;;15.65;11.57;;;;;;;;;;5094933;28;20762;-66
2020/12/11 11:42:03;;;;;;;18.58;11.52;;;;;;;;;;5094245;28;20270;-67
2020/12/11 11:44:39;;;;;;;13.60;10.45;;;;;;;;;;5094680;28;20209;-67
2020/12/11 11:47:10;;;;;;;15.50;10.57;;;;;;;;;;5094904;28;20299;-67
2020/12/11 11:49:51;;;;;;;17.05;11.02;;;;;;;;;;5094154;28;20230;-65
2020/12/11 11:52:22;;;;;;;14.52;10.90;;;;;;;;;;5097100;28;20798;-67
2020/12/11 11:54:49;;;;;;;15.00;11.88;;;;;;;;;;5097146;28;20224;-67
2020/12/11 11:57:16;;;;;;;15.98;11.32;;;;;;;;;;5095621;28;20205;-67
2020/12/11 11:59:43;;;;;;;18.08;11.95;;;;;;;;;;5095550;28;20204;-67
2020/12/11 12:02:10;;;;;;;14.63;10.73;;;;;;;;;;5096505;28;20224;-67
2020/12/11 12:04:38;;;;;;;13.93;10.98;;;;;;;;;;5097600;28;20543;-68
2020/12/11 12:07:04;;;;;;;16.10;11.02;;;;;;;;;;5098492;28;20216;-68
2020/12/11 12:09:31;;;;;;;14.90;11.13;;;;;;;;;;5096112;28;20662;-66
2020/12/11 12:11:59;;;;;;;13.80;11.27;;;;;;;;;;5095406;28;20228;-66
2020/12/11 12:14:26;;;;;;;15.18;10.68;;;;;;;;;;5095653;28;20268;-68
2020/12/11 12:16:54;;;;;;;13.80;11.20;;;;;;;;;;5095992;28;20196;-65
2020/12/11 12:19:27;;;;;;;18.10;13.05;;;;;;;;;;5097676;28;20656;-65
2020/12/11 12:27:36;;;;;;;17.92;11.43;;;;;;;;;;5105474;28;20207;-66
2020/12/11 12:30:03;;;;;;;17.60;12.27;;;;;;;;;;5106831;28;20197;-64
2020/12/11 12:32:34;;;;;;;16.75;12.27;;;;;;;;;;5107752;28;20231;-65
2020/12/11 12:35:02;;;;;;;19.08;12.30;;;;;;;;;;5103938;28;20256;-63
2020/12/11 12:37:36;;;;;;;16.27;11.70;;;;;;;;;;5102062;28;20613;-64
2020/12/11 12:40:17;;;;;;;15.20;11.70;;;;;;;;;;5102104;28;20181;-65
2020/12/11 12:42:59;;;;;;;15.57;11.35;;;;;;;;;;5105858;28;20216;-64
2020/12/11 12:45:26;;;;;;;18.25;12.25;;;;;;;;;;5109564;28;20267;-66
2020/12/11 12:47:53;;;;;;;15.05;11.27;;;;;;;;;;5104328;28;20379;-64
2020/12/11 12:50:20;;;;;;;17.05;11.23;;;;;;;;;;5101682;28;20211;-66
2020/12/11 12:52:48;;;;;;;15.00;10.65;;;;;;;;;;5101914;28;20281;-67
2020/12/11 12:55:17;;;;;;;15.77;11.50;;;;;;;;;;5099707;28;20292;-68
2020/12/11 12:57:46;;;;;;;16.90;11.60;;;;;;;;;;5099023;28;20589;-66
2020/12/11 13:00:20;;;;;;;14.52;11.20;;;;;;;;;;5098814;28;20265;-66
2020/12/11 13:03:12;;;;;;;16.20;11.80;;;;;;;;;;5098846;28;20219;-65
2020/12/11 13:05:39;;;;;;;15.75;11.68;;;;;;;;;;5098199;28;20204;-68
2020/12/11 13:08:06;;;;;;;17.77;12.20;;;;;;;;;;5099000;28;20288;-68
2020/12/11 13:10:33;;;;;;;14.32;11.23;;;;;;;;;;5097947;28;20200;-65
2020/12/11 13:13:06;;;;;;;17.20;10.98;;;;;;;;;;5097747;28;20228;-67
2020/12/11 13:15:33;;;;;;;16.65;11.32;;;;;;;;;;5098300;28;20188;-68
2020/12/11 13:18:00;;;;;;;17.25;12.57;;;;;;;;;;5098649;28;20233;-66
2020/12/11 13:20:29;;;;;;;15.60;11.57;;;;;;;;;;5099946;28;20201;-67
2020/12/11 13:26:09;;;;;;;16.88;10.80;;;;;;;;;;5075529;28;20687;-68
2020/12/11 13:28:36;;;;;;;20.17;13.07;;;;;;;;;;5096961;28;20224;-68
2020/12/11 13:31:02;;;;;;;20.10;12.80;;;;;;;;;;5097144;28;20695;-68
2020/12/11 13:33:29;;;;;;;16.42;10.63;;;;;;;;;;5097547;28;20227;-67
2020/12/11 13:35:56;;;;;;;16.33;12.25;;;;;;;;;;5097654;28;20249;-68
2020/12/11 13:38:23;;;;;;;17.45;12.95;;;;;;;;;;5096642;28;20595;-66
2020/12/11 13:40:50;;;;;;;19.52;12.02;;;;;;;;;;5096954;28;20201;-66
2020/12/11 13:43:17;;;;;;;15.77;11.60;;;;;;;;;;5102230;28;20208;-67
2020/12/11 13:45:44;;;;;;;14.88;10.32;;;;;;;;;;5103077;28;20201;-67
2020/12/11 13:48:11;;;;;;;13.80;10.40;;;;;;;;;;5100886;28;20228;-66
2020/12/11 13:50:37;;;;;;;17.65;11.93;;;;;;;;;;5098084;28;20204;-67
2020/12/11 13:53:04;;;;;;;13.63;9.90;;;;;;;;;;5096942;28;20260;-66
2020/12/11 13:55:31;;;;;;;15.13;11.70;;;;;;;;;;5097052;28;20734;-67
2020/12/11 13:57:59;;;;;;;18.33;11.85;;;;;;;;;;5097367;28;20245;-66
2020/12/11 14:00:25;;;;;;;19.75;11.13;;;;;;;;;;5096861;28;20679;-66
2020/12/11 14:02:52;;;;;;;15.95;10.70;;;;;;;;;;5096366;28;20711;-66
2020/12/11 14:05:19;;;;;;;16.30;11.60;;;;;;;;;;5096800;28;20330;-66
2020/12/11 14:07:45;;;;;;;15.07;11.32;;;;;;;;;;5096821;28;20204;-66
2020/12/11 14:10:12;;;;;;;19.38;12.88;;;;;;;;;;5096711;28;20269;-66
2020/12/11 14:12:39;;;;;;;20.58;11.93;;;;;;;;;;5097030;28;20699;-65
2020/12/11 14:15:07;;;;;;;17.52;11.85;;;;;;;;;;5097073;28;20208;-66
2020/12/11 14:17:50;;;;;;;16.30;11.02;;;;;;;;;;5096842;28;20222;-67
2020/12/11 14:23:08;;;;;;;17.35;11.25;;;;;;;;;;5097124;28;20177;-66
2020/12/11 14:25:35;;;;;;;16.38;11.68;;;;;;;;;;5096404;28;20228;-66
2020/12/11 14:28:02;;;;;;;14.10;11.43;;;;;;;;;;5096268;28;20707;-65
2020/12/11 14:30:31;;;;;;;13.98;10.93;;;;;;;;;;5097704;28;20200;-65
2020/12/11 14:32:58;;;;;;;14.15;10.60;;;;;;;;;;5096581;28;20220;-66
2020/12/11 14:35:25;;;;;;;13.70;10.35;;;;;;;;;;5096704;28;20668;-66
2020/12/11 14:37:51;;;;;;;14.15;11.05;;;;;;;;;;5096713;28;20200;-66
2020/12/11 14:40:18;;;;;;;15.18;11.35;;;;;;;;;;5096808;28;20339;-66
2020/12/11 14:42:45;;;;;;;14.63;10.57;;;;;;;;;;5096151;28;20711;-65